Time;durP1;ratioP1;P1;durP2;ratioP2;P2;SDS_P1;SDS_P2;PMS_P1;PMS_P2;Temp;Humidity;BMP_temperature;BMP_pressure;BME280_temperature;BME280_humidity;BME280_pressure;Samples;Min_cycle;Max_cycle;Signal;HPM_P1;HPM_P2
2023/05/07 00:02:03;;;;;;;0.20;0.20;;;7.90;99.90;;;;;;5044032;28;20610;-81
2023/05/07 00:04:35;;;;;;;0.20;0.20;;;7.90;99.90;;;;;;5036263;28;20765;-80
2023/05/07 00:07:01;;;;;;;0.30;0.30;;;7.90;99.90;;;;;;5047516;28;20444;-80
2023/05/07 00:09:27;;;;;;;0.20;0.20;;;8.00;99.90;;;;;;5032254;28;20445;-80
2023/05/07 00:11:52;;;;;;;0.20;0.20;;;8.00;99.90;;;;;;5031955;28;20184;-81
2023/05/07 00:14:18;;;;;;;0.20;0.20;;;8.00;99.90;;;;;;5031587;28;20223;-81
2023/05/07 00:16:43;;;;;;;0.20;0.20;;;8.00;99.90;;;;;;5037262;28;20194;-81
2023/05/07 00:19:09;;;;;;;0.20;0.20;;;8.00;99.90;;;;;;5042281;28;20274;-81
2023/05/07 00:21:34;;;;;;;0.20;0.20;;;8.10;99.90;;;;;;5041720;28;20194;-81
2023/05/07 00:24:00;;;;;;;0.20;0.20;;;8.00;99.90;;;;;;5042383;28;20254;-81
2023/05/07 00:26:25;;;;;;;0.20;0.20;;;8.00;99.90;;;;;;5039904;28;20199;-81
2023/05/07 00:28:51;;;;;;;0.20;0.20;;;8.10;99.90;;;;;;5036099;28;20558;-81
2023/05/07 00:31:16;;;;;;;0.20;0.20;;;8.00;99.90;;;;;;5033626;28;20639;-80
2023/05/07 00:33:42;;;;;;;0.20;0.20;;;8.10;99.90;;;;;;5038658;28;20230;-80
2023/05/07 00:36:07;;;;;;;0.20;0.20;;;8.10;99.90;;;;;;5031551;28;20186;-80
2023/05/07 00:38:33;;;;;;;0.20;0.20;;;8.10;99.90;;;;;;5033365;28;20195;-81
2023/05/07 00:40:59;;;;;;;0.20;0.20;;;;;;;;;;5028482;28;20195;-80
2023/05/07 00:43:25;;;;;;;0.20;0.20;;;8.00;99.90;;;;;;5033434;28;20305;-80
2023/05/07 00:45:51;;;;;;;0.20;0.20;;;8.10;99.90;;;;;;5037051;28;20875;-80
2023/05/07 00:48:17;;;;;;;0.20;0.20;;;8.10;99.90;;;;;;5044271;28;20245;-80
2023/05/07 00:50:42;;;;;;;0.20;0.20;;;8.10;99.90;;;;;;5033709;28;20454;-80
2023/05/07 00:53:08;;;;;;;0.20;0.20;;;8.10;99.90;;;;;;5034245;28;20182;-80
2023/05/07 00:55:35;;;;;;;0.20;0.20;;;8.20;99.90;;;;;;5042670;28;20509;-80
2023/05/07 00:58:01;;;;;;;0.20;0.20;;;8.10;99.90;;;;;;5033378;28;20552;-80
2023/05/07 01:00:27;;;;;;;0.20;0.20;;;8.10;99.90;;;;;;5048154;28;20475;-80
2023/05/07 01:02:52;;;;;;;0.20;0.20;;;8.10;99.90;;;;;;5045164;28;20270;-80
2023/05/07 01:05:19;;;;;;;0.20;0.20;;;8.20;99.90;;;;;;5038628;28;20192;-80
2023/05/07 01:07:46;;;;;;;0.20;0.20;;;8.20;99.90;;;;;;5038781;28;20182;-80
2023/05/07 01:10:12;;;;;;;0.30;0.30;;;8.20;99.90;;;;;;5041500;28;21049;-81
2023/05/07 01:12:39;;;;;;;0.30;0.30;;;8.20;99.90;;;;;;5041408;28;20511;-81
2023/05/07 01:15:07;;;;;;;0.30;0.30;;;8.20;99.90;;;;;;5032029;28;20486;-80
2023/05/07 01:17:37;;;;;;;0.20;0.20;;;8.20;99.90;;;;;;5045232;28;20444;-81
2023/05/07 01:20:05;;;;;;;0.30;0.30;;;8.20;99.90;;;;;;5045556;28;21061;-80
2023/05/07 01:22:36;;;;;;;0.30;0.30;;;8.20;99.90;;;;;;5035570;28;20452;-80
2023/05/07 01:25:03;;;;;;;0.30;0.30;;;8.20;99.90;;;;;;5051636;28;20441;-81
2023/05/07 01:27:28;;;;;;;0.20;0.20;;;8.20;99.90;;;;;;5034469;28;20470;-80
2023/05/07 01:29:55;;;;;;;0.23;0.23;;;8.20;99.90;;;;;;5032455;28;20481;-80
2023/05/07 01:32:32;;;;;;;0.30;0.30;;;8.30;99.90;;;;;;5030471;28;20237;-80
2023/05/07 01:34:59;;;;;;;0.20;0.20;;;8.20;99.90;;;;;;5045185;28;21071;-82
2023/05/07 01:37:25;;;;;;;0.30;0.30;;;8.30;99.90;;;;;;5039611;28;20448;-81
2023/05/07 01:39:52;;;;;;;0.20;0.20;;;8.30;99.90;;;;;;5039992;28;20456;-80
2023/05/07 01:42:17;;;;;;;0.20;0.20;;;8.20;99.90;;;;;;5042831;28;20234;-80
2023/05/07 01:44:43;;;;;;;0.20;0.20;;;8.20;99.90;;;;;;5033045;28;20445;-81
2023/05/07 01:47:09;;;;;;;0.20;0.20;;;8.30;99.90;;;;;;5046663;28;20195;-81
2023/05/07 01:49:34;;;;;;;0.20;0.20;;;8.20;99.90;;;;;;5048225;28;20197;-81
2023/05/07 01:52:00;;;;;;;0.20;0.20;;;8.30;99.90;;;;;;5039843;28;21177;-81
2023/05/07 01:54:27;;;;;;;0.20;0.20;;;8.20;99.90;;;;;;5049314;28;20210;-80
2023/05/07 01:56:53;;;;;;;0.30;0.30;;;8.20;99.90;;;;;;5049157;28;20241;-81
2023/05/07 01:59:19;;;;;;;0.30;0.30;;;8.30;99.90;;;;;;5040363;28;20446;-81
2023/05/07 02:01:44;;;;;;;0.20;0.20;;;8.20;99.90;;;;;;5034869;28;20262;-80
2023/05/07 02:04:10;;;;;;;0.20;0.20;;;8.20;99.90;;;;;;5049174;28;20279;-80
2023/05/07 02:06:35;;;;;;;0.20;0.20;;;8.20;99.90;;;;;;5046164;28;20202;-80
2023/05/07 02:09:01;;;;;;;0.20;0.20;;;8.30;99.90;;;;;;5033438;28;20202;-80
2023/05/07 02:11:27;;;;;;;0.30;0.30;;;8.20;99.90;;;;;;5032115;28;20199;-80
2023/05/07 02:13:52;;;;;;;0.20;0.20;;;8.20;99.90;;;;;;5030317;28;20254;-81
2023/05/07 02:16:19;;;;;;;0.20;0.20;;;8.20;99.90;;;;;;5036315;28;20203;-81
2023/05/07 02:18:45;;;;;;;0.20;0.20;;;8.20;99.90;;;;;;5035245;28;20186;-80
2023/05/07 02:21:10;;;;;;;0.20;0.20;;;8.20;99.90;;;;;;5049561;28;20445;-81
2023/05/07 02:23:36;;;;;;;0.20;0.20;;;8.20;99.90;;;;;;5050416;28;20225;-81
2023/05/07 02:26:01;;;;;;;0.20;0.20;;;8.20;99.90;;;;;;5048318;28;20728;-81
2023/05/07 02:28:27;;;;;;;0.30;0.30;;;8.20;99.90;;;;;;5031866;28;20187;-80
2023/05/07 02:30:52;;;;;;;0.30;0.30;;;8.20;99.90;;;;;;5041576;28;20183;-80
2023/05/07 02:33:18;;;;;;;0.30;0.30;;;8.20;99.90;;;;;;5037103;28;20189;-79
2023/05/07 02:35:43;;;;;;;0.30;0.30;;;8.20;99.90;;;;;;5042980;28;20218;-80
2023/05/07 02:38:10;;;;;;;0.20;0.20;;;8.20;99.90;;;;;;5037485;28;20635;-81
2023/05/07 02:40:39;;;;;;;0.20;0.20;;;8.20;99.90;;;;;;5031001;28;20188;-80
2023/05/07 02:43:05;;;;;;;0.20;0.20;;;8.30;99.90;;;;;;5031767;28;20486;-80
2023/05/07 02:45:31;;;;;;;0.20;0.20;;;8.20;99.90;;;;;;5034271;28;20473;-80
2023/05/07 02:47:57;;;;;;;0.20;0.20;;;8.20;99.90;;;;;;5043712;28;20445;-81
2023/05/07 02:50:22;;;;;;;0.30;0.30;;;8.30;99.90;;;;;;5046829;28;20453;-80
2023/05/07 02:52:48;;;;;;;0.20;0.20;;;8.30;99.90;;;;;;5049818;28;20285;-81
2023/05/07 02:55:13;;;;;;;0.20;0.20;;;8.30;99.90;;;;;;5049823;28;20226;-80
2023/05/07 02:57:39;;;;;;;0.20;0.20;;;8.30;99.90;;;;;;5047369;28;20182;-80
2023/05/07 03:00:16;;;;;;;0.20;0.20;;;8.30;99.90;;;;;;5039233;28;20198;-80
2023/05/07 03:02:41;;;;;;;0.20;0.20;;;8.20;99.90;;;;;;5035200;28;20262;-80
2023/05/07 03:05:08;;;;;;;0.20;0.20;;;8.20;99.90;;;;;;5033538;28;21057;-80
2023/05/07 03:07:34;;;;;;;0.20;0.20;;;8.30;99.90;;;;;;5029852;28;20278;-80
2023/05/07 03:10:00;;;;;;;0.30;0.30;;;8.30;99.90;;;;;;5046047;28;20961;-79
2023/05/07 03:12:25;;;;;;;0.20;0.20;;;8.30;99.90;;;;;;5050336;28;20456;-81
2023/05/07 03:14:51;;;;;;;0.20;0.20;;;8.30;99.90;;;;;;5039051;28;20272;-80
2023/05/07 03:17:16;;;;;;;0.30;0.30;;;8.30;99.90;;;;;;5044550;28;20183;-80
2023/05/07 03:19:42;;;;;;;0.20;0.20;;;8.30;99.90;;;;;;5030475;28;20195;-80
2023/05/07 03:22:07;;;;;;;0.20;0.20;;;8.30;99.90;;;;;;5047828;28;20182;-80
2023/05/07 03:24:33;;;;;;;0.20;0.20;;;8.30;99.90;;;;;;5038330;28;20290;-80
2023/05/07 03:26:58;;;;;;;0.20;0.20;;;8.30;99.90;;;;;;5031929;28;20212;-81
2023/05/07 03:29:24;;;;;;;0.20;0.20;;;8.30;99.90;;;;;;5045544;28;20252;-80
2023/05/07 03:31:49;;;;;;;0.20;0.20;;;8.40;99.90;;;;;;5035471;28;20184;-80
2023/05/07 03:34:16;;;;;;;0.20;0.20;;;8.30;99.90;;;;;;5046489;28;20222;-80
2023/05/07 03:36:42;;;;;;;0.20;0.20;;;8.30;99.90;;;;;;5042335;28;20186;-80
2023/05/07 03:39:07;;;;;;;0.20;0.20;;;8.30;99.90;;;;;;5045809;28;20729;-81
2023/05/07 03:41:33;;;;;;;0.20;0.20;;;8.40;99.90;;;;;;5056487;28;20196;-80
2023/05/07 03:43:59;;;;;;;0.30;0.30;;;8.30;99.90;;;;;;5060223;28;20245;-80
2023/05/07 03:46:26;;;;;;;0.23;0.23;;;8.30;99.90;;;;;;5041807;28;20176;-79
2023/05/07 03:48:51;;;;;;;0.30;0.30;;;8.30;99.90;;;;;;5037680;28;20189;-81
2023/05/07 03:51:17;;;;;;;0.20;0.20;;;8.30;99.90;;;;;;5041613;28;20445;-80
2023/05/07 03:53:42;;;;;;;0.20;0.20;;;8.30;99.90;;;;;;5048272;28;20187;-80
2023/05/07 03:56:08;;;;;;;0.20;0.20;;;8.40;99.90;;;;;;5046027;28;20264;-81
2023/05/07 03:58:33;;;;;;;0.20;0.20;;;8.40;99.90;;;;;;5038989;28;20193;-80
2023/05/07 04:00:59;;;;;;;0.20;0.20;;;8.30;99.90;;;;;;5031004;28;20698;-80
2023/05/07 04:03:24;;;;;;;0.30;0.30;;;8.30;99.90;;;;;;5038164;28;20187;-79
2023/05/07 04:05:50;;;;;;;0.30;0.30;;;8.40;99.90;;;;;;5037004;28;20195;-80
2023/05/07 04:08:15;;;;;;;0.30;0.30;;;8.40;99.90;;;;;;5036507;28;20266;-80
2023/05/07 04:10:41;;;;;;;0.30;0.30;;;8.30;99.90;;;;;;5039468;28;20183;-80
2023/05/07 04:13:06;;;;;;;0.30;0.30;;;8.40;99.90;;;;;;5050749;28;20182;-80
2023/05/07 04:15:32;;;;;;;0.30;0.30;;;8.40;99.90;;;;;;5047794;28;20738;-80
2023/05/07 04:17:57;;;;;;;0.30;0.30;;;8.40;99.90;;;;;;5038112;28;20187;-80
2023/05/07 04:20:23;;;;;;;0.30;0.30;;;8.40;99.90;;;;;;5040540;28;20198;-80
2023/05/07 04:22:49;;;;;;;0.30;0.30;;;8.40;99.90;;;;;;5041412;28;20620;-79
2023/05/07 04:25:16;;;;;;;0.20;0.20;;;8.50;99.90;;;;;;5043279;28;20187;-80
2023/05/07 04:27:41;;;;;;;0.20;0.20;;;8.40;99.90;;;;;;5043493;28;20635;-80
2023/05/07 04:30:07;;;;;;;0.20;0.20;;;8.40;99.90;;;;;;5051179;28;20536;-80
2023/05/07 04:32:33;;;;;;;0.20;0.20;;;8.50;99.90;;;;;;5037520;28;20219;-80
2023/05/07 04:34:58;;;;;;;0.23;0.23;;;8.50;99.90;;;;;;5047551;28;20536;-80
2023/05/07 04:37:25;;;;;;;0.20;0.20;;;8.50;99.90;;;;;;5047866;28;20645;-80
2023/05/07 04:39:51;;;;;;;0.20;0.20;;;8.50;99.90;;;;;;5047347;28;20202;-79
2023/05/07 04:42:17;;;;;;;0.20;0.20;;;8.50;99.90;;;;;;5040971;28;20464;-80
2023/05/07 04:44:44;;;;;;;0.30;0.30;;;8.60;99.90;;;;;;5051258;28;20282;-80
2023/05/07 04:47:10;;;;;;;0.20;0.20;;;8.60;99.90;;;;;;5034946;28;20517;-80
2023/05/07 04:49:35;;;;;;;0.27;0.27;;;8.60;99.90;;;;;;5035525;28;20881;-80
2023/05/07 04:52:01;;;;;;;0.30;0.30;;;8.60;99.90;;;;;;5050558;28;20281;-80
2023/05/07 04:54:26;;;;;;;0.30;0.30;;;8.60;99.90;;;;;;5052409;28;20221;-80
2023/05/07 04:56:52;;;;;;;0.20;0.20;;;8.60;99.90;;;;;;5045693;28;20210;-80
2023/05/07 04:59:17;;;;;;;0.30;0.30;;;8.60;99.90;;;;;;5050656;28;20191;-80
2023/05/07 05:01:43;;;;;;;0.20;0.20;;;8.60;99.90;;;;;;5043723;28;20663;-80
2023/05/07 05:04:08;;;;;;;0.20;0.20;;;8.60;99.90;;;;;;5037441;28;20187;-81
2023/05/07 05:06:34;;;;;;;0.20;0.20;;;8.60;99.90;;;;;;5041226;28;20183;-80
2023/05/07 05:08:59;;;;;;;0.20;0.20;;;8.60;99.90;;;;;;5053255;28;21036;-80
2023/05/07 05:11:25;;;;;;;0.20;0.20;;;8.70;99.90;;;;;;5035890;28;20214;-80
2023/05/07 05:13:51;;;;;;;0.20;0.20;;;8.50;99.90;;;;;;5043418;28;20723;-81
2023/05/07 05:16:16;;;;;;;0.30;0.30;;;8.60;99.90;;;;;;5041047;28;20273;-80
2023/05/07 05:18:42;;;;;;;0.20;0.20;;;8.60;99.90;;;;;;5035115;28;20190;-80
2023/05/07 05:21:07;;;;;;;0.20;0.20;;;8.60;99.90;;;;;;5046343;28;20282;-79
2023/05/07 05:23:33;;;;;;;0.20;0.20;;;8.60;99.90;;;;;;5043593;28;20796;-80
2023/05/07 05:25:59;;;;;;;0.30;0.30;;;8.60;99.90;;;;;;5049637;28;20201;-80
2023/05/07 05:28:24;;;;;;;0.20;0.20;;;8.60;99.90;;;;;;5045270;28;20185;-80
2023/05/07 05:30:50;;;;;;;0.20;0.20;;;8.70;99.90;;;;;;5039313;28;20441;-81
2023/05/07 05:33:16;;;;;;;0.20;0.20;;;8.70;99.90;;;;;;5038103;28;20619;-83
2023/05/07 05:35:42;;;;;;;0.30;0.30;;;8.70;99.90;;;;;;5043045;28;20219;-82
2023/05/07 05:38:07;;;;;;;0.20;0.20;;;8.70;99.90;;;;;;5036533;28;20190;-81
2023/05/07 05:40:33;;;;;;;0.30;0.30;;;8.70;99.90;;;;;;5035416;28;20187;-81
2023/05/07 05:42:59;;;;;;;0.20;0.20;;;8.70;99.90;;;;;;5039157;28;20692;-81
2023/05/07 05:45:24;;;;;;;0.20;0.20;;;8.80;99.90;;;;;;5039710;28;20213;-81
2023/05/07 05:47:50;;;;;;;0.20;0.20;;;8.70;99.90;;;;;;5035886;28;20454;-82
2023/05/07 05:50:17;;;;;;;0.20;0.20;;;8.80;99.90;;;;;;5030964;28;20639;-81
2023/05/07 05:52:42;;;;;;;0.30;0.30;;;8.80;99.90;;;;;;5040319;28;20536;-83
2023/05/07 05:55:08;;;;;;;0.30;0.30;;;8.80;99.90;;;;;;5045443;28;20746;-80
2023/05/07 05:57:34;;;;;;;0.30;0.30;;;8.90;99.90;;;;;;5036472;28;20652;-82
2023/05/07 06:00:01;;;;;;;0.30;0.30;;;8.90;99.90;;;;;;5038217;28;20186;-80
2023/05/07 06:02:26;;;;;;;0.20;0.20;;;9.00;99.90;;;;;;5037931;28;20250;-81
2023/05/07 06:04:52;;;;;;;0.30;0.30;;;9.00;99.90;;;;;;5040413;28;20979;-80
2023/05/07 06:07:18;;;;;;;0.30;0.30;;;9.00;99.90;;;;;;5033061;28;20265;-80
2023/05/07 06:09:44;;;;;;;0.30;0.30;;;9.00;99.90;;;;;;5043476;28;20217;-81
2023/05/07 06:12:09;;;;;;;0.30;0.30;;;9.10;99.90;;;;;;5033552;28;20639;-80
2023/05/07 06:14:35;;;;;;;0.30;0.30;;;9.20;99.90;;;;;;5046670;28;20482;-81
2023/05/07 06:17:00;;;;;;;0.37;0.37;;;9.10;99.90;;;;;;5038262;28;20195;-81
2023/05/07 06:19:27;;;;;;;0.30;0.30;;;9.20;99.90;;;;;;5041973;28;20237;-80
2023/05/07 06:21:53;;;;;;;0.23;0.23;;;9.20;99.90;;;;;;5035590;28;20215;-80
2023/05/07 06:24:19;;;;;;;0.30;0.30;;;9.30;99.90;;;;;;5037707;28;20449;-81
2023/05/07 06:26:44;;;;;;;0.20;0.20;;;9.30;99.90;;;;;;5047560;28;20187;-80
2023/05/07 06:29:10;;;;;;;0.20;0.20;;;9.40;99.90;;;;;;5031358;28;20199;-80
2023/05/07 06:31:36;;;;;;;0.20;0.20;;;9.40;99.90;;;;;;5029685;28;20191;-79
2023/05/07 06:34:02;;;;;;;0.20;0.20;;;9.40;99.90;;;;;;5043182;28;20241;-81
2023/05/07 06:36:28;;;;;;;0.20;0.20;;;9.30;99.90;;;;;;5039072;28;20197;-80
2023/05/07 06:38:53;;;;;;;0.20;0.20;;;9.40;99.90;;;;;;5039711;28;21110;-78
2023/05/07 06:41:20;;;;;;;0.20;0.20;;;9.50;99.90;;;;;;5035483;28;20450;-79
2023/05/07 06:43:45;;;;;;;0.20;0.20;;;9.60;99.90;;;;;;5032582;28;20277;-80
2023/05/07 06:46:11;;;;;;;0.30;0.30;;;9.60;99.90;;;;;;5037391;28;20911;-78
2023/05/07 06:48:36;;;;;;;0.30;0.30;;;9.70;99.90;;;;;;5046168;28;20240;-78
2023/05/07 06:51:02;;;;;;;0.20;0.20;;;9.60;99.90;;;;;;5034628;28;20643;-79
2023/05/07 06:53:29;;;;;;;0.33;0.33;;;9.60;99.90;;;;;;5038345;28;20779;-79
2023/05/07 06:55:54;;;;;;;0.40;0.40;;;9.50;99.90;;;;;;5040730;28;20234;-79
2023/05/07 06:58:20;;;;;;;0.20;0.20;;;9.50;99.90;;;;;;5049448;28;21095;-81
2023/05/07 07:00:45;;;;;;;0.20;0.20;;;9.50;99.90;;;;;;5044404;28;21216;-80
2023/05/07 07:03:11;;;;;;;0.20;0.20;;;9.60;99.90;;;;;;5044669;28;20183;-82
2023/05/07 07:05:36;;;;;;;0.20;0.20;;;9.50;99.90;;;;;;5032994;28;20237;-80
2023/05/07 07:08:02;;;;;;;0.20;0.20;;;9.60;99.90;;;;;;5043248;28;20201;-80
2023/05/07 07:10:27;;;;;;;0.20;0.20;;;9.60;99.90;;;;;;5044151;28;20195;-80
2023/05/07 07:12:53;;;;;;;0.20;0.20;;;9.70;99.90;;;;;;5042066;28;20253;-80
2023/05/07 07:15:20;;;;;;;0.20;0.20;;;9.70;99.90;;;;;;5054674;28;20223;-78
2023/05/07 07:17:46;;;;;;;0.20;0.20;;;9.80;99.90;;;;;;5049787;28;20187;-80
2023/05/07 07:20:11;;;;;;;0.20;0.20;;;9.70;99.90;;;;;;5035889;28;20857;-80
2023/05/07 07:22:37;;;;;;;0.20;0.20;;;9.90;99.90;;;;;;5038174;28;20651;-79
2023/05/07 07:25:02;;;;;;;0.20;0.20;;;9.90;99.90;;;;;;5031230;28;20195;-79
2023/05/07 07:27:28;;;;;;;0.20;0.20;;;10.00;99.90;;;;;;5048121;28;20234;-79
2023/05/07 07:29:53;;;;;;;0.20;0.20;;;10.10;99.90;;;;;;5048271;28;20237;-80
2023/05/07 07:32:19;;;;;;;0.20;0.20;;;10.10;99.90;;;;;;5036658;28;20715;-80
2023/05/07 07:34:44;;;;;;;0.20;0.20;;;10.10;99.90;;;;;;5044618;28;20222;-79
2023/05/07 07:37:10;;;;;;;0.20;0.20;;;10.30;99.90;;;;;;5049292;28;20538;-80
2023/05/07 07:39:37;;;;;;;0.20;0.20;;;10.40;99.90;;;;;;5049184;28;20205;-80
2023/05/07 07:42:03;;;;;;;0.20;0.20;;;10.40;99.90;;;;;;5045254;28;20238;-80
2023/05/07 07:44:28;;;;;;;0.20;0.20;;;10.60;99.90;;;;;;5044082;28;20911;-81
2023/05/07 07:46:54;;;;;;;0.20;0.20;;;10.60;99.90;;;;;;5040250;28;20195;-81
2023/05/07 07:49:19;;;;;;;0.20;0.20;;;10.50;99.90;;;;;;5039127;28;20259;-80
2023/05/07 07:51:45;;;;;;;0.20;0.20;;;10.50;99.90;;;;;;5044611;28;20854;-80
2023/05/07 07:54:10;;;;;;;0.20;0.20;;;10.50;99.90;;;;;;5038698;28;20215;-81
2023/05/07 07:56:36;;;;;;;0.20;0.20;;;10.50;99.90;;;;;;5042937;28;20189;-82
2023/05/07 07:59:02;;;;;;;0.20;0.20;;;10.50;99.90;;;;;;5037996;28;20179;-80
2023/05/07 08:01:30;;;;;;;0.20;0.20;;;10.80;99.90;;;;;;5031343;28;20190;-79
2023/05/07 08:03:55;;;;;;;0.20;0.20;;;11.00;99.90;;;;;;5048363;28;20281;-79
2023/05/07 08:06:21;;;;;;;0.17;0.17;;;11.00;99.90;;;;;;5045323;28;20529;-80
2023/05/07 08:08:46;;;;;;;0.20;0.20;;;11.40;99.90;;;;;;5034084;28;20186;-83
2023/05/07 08:11:12;;;;;;;0.20;0.20;;;11.60;99.90;;;;;;5038513;28;20237;-83
2023/05/07 08:13:38;;;;;;;0.20;0.20;;;11.50;99.90;;;;;;5052373;28;20221;-83
2023/05/07 08:16:04;;;;;;;0.20;0.20;;;11.40;99.90;;;;;;5031173;28;20203;-83
2023/05/07 08:18:30;;;;;;;0.20;0.20;;;11.70;99.90;;;;;;5034112;28;20449;-82
2023/05/07 08:20:55;;;;;;;0.20;0.20;;;12.40;99.90;;;;;;5038333;28;20453;-83
2023/05/07 08:23:21;;;;;;;0.20;0.20;;;12.60;99.90;;;;;;5041588;28;20190;-83
2023/05/07 08:25:47;;;;;;;0.10;0.10;;;13.10;99.90;;;;;;5038710;28;20549;-84
2023/05/07 08:28:13;;;;;;;0.10;0.10;;;12.80;99.90;;;;;;5048119;28;20426;-83
2023/05/07 08:30:38;;;;;;;0.10;0.10;;;12.60;99.90;;;;;;5048025;28;20425;-83
2023/05/07 08:33:04;;;;;;;0.20;0.20;;;12.70;99.90;;;;;;5043891;28;20186;-84
2023/05/07 08:35:30;;;;;;;0.20;0.20;;;12.20;99.90;;;;;;5042930;28;20301;-86
2023/05/07 08:37:55;;;;;;;0.10;0.10;;;12.20;99.90;;;;;;5047014;28;20625;-86
2023/05/07 08:40:25;;;;;;;0.20;0.20;;;12.30;99.90;;;;;;5047575;28;20231;-82
2023/05/07 08:42:53;;;;;;;0.20;0.20;;;12.20;99.90;;;;;;5029970;28;20281;-83
2023/05/07 08:45:19;;;;;;;0.20;0.20;;;12.20;99.90;;;;;;5041456;28;20469;-84
2023/05/07 08:47:49;;;;;;;0.20;0.20;;;11.90;99.90;;;;;;5044642;28;20449;-83
2023/05/07 08:50:15;;;;;;;0.20;0.20;;;11.80;99.90;;;;;;5038789;28;20429;-84
2023/05/07 08:52:41;;;;;;;0.10;0.10;;;12.20;99.90;;;;;;5034652;28;20445;-82
2023/05/07 08:55:08;;;;;;;0.10;0.10;;;12.20;99.90;;;;;;5048333;28;20226;-84
2023/05/07 08:57:34;;;;;;;0.10;0.10;;;12.10;99.90;;;;;;5044733;28;20961;-85
2023/05/07 09:00:00;;;;;;;0.10;0.10;;;12.20;99.90;;;;;;5038013;28;20512;-80
2023/05/07 09:02:25;;;;;;;0.10;0.10;;;12.10;99.90;;;;;;5027903;28;20458;-80
2023/05/07 09:04:51;;;;;;;0.10;0.10;;;12.10;99.90;;;;;;5031152;28;20261;-81
2023/05/07 09:07:17;;;;;;;0.10;0.10;;;12.20;99.90;;;;;;5033358;28;20270;-80
2023/05/07 09:09:44;;;;;;;0.10;0.10;;;12.20;99.90;;;;;;5032188;28;20668;-80
2023/05/07 09:12:09;;;;;;;0.20;0.20;;;12.10;99.90;;;;;;5038387;28;20243;-80
2023/05/07 09:14:35;;;;;;;0.10;0.10;;;12.30;99.90;;;;;;5046321;28;20557;-81
2023/05/07 09:17:01;;;;;;;0.10;0.10;;;12.20;99.90;;;;;;5040682;28;20276;-81
2023/05/07 09:19:27;;;;;;;0.10;0.10;;;12.60;99.90;;;;;;5047281;28;20187;-80
2023/05/07 09:22:04;;;;;;;0.10;0.10;;;12.10;99.90;;;;;;5042865;28;20191;-80
2023/05/07 09:24:34;;;;;;;0.10;0.10;;;12.30;99.90;;;;;;5044482;28;20850;-80
2023/05/07 09:27:03;;;;;;;0.10;0.10;;;12.20;99.90;;;;;;5041093;28;20449;-80
2023/05/07 09:29:29;;;;;;;0.20;0.20;;;12.30;99.90;;;;;;5034743;28;21418;-79
2023/05/07 09:31:55;;;;;;;0.10;0.10;;;12.40;99.90;;;;;;5045572;28;20582;-80
2023/05/07 09:34:22;;;;;;;0.10;0.10;;;12.20;99.90;;;;;;5056369;28;20583;-79
2023/05/07 09:36:47;;;;;;;0.10;0.10;;;12.30;99.90;;;;;;5037381;28;20445;-79
2023/05/07 09:39:13;;;;;;;0.10;0.10;;;12.40;99.90;;;;;;5048410;28;21005;-80
2023/05/07 09:41:49;;;;;;;0.20;0.20;;;12.40;99.90;;;;;;5032841;28;20214;-80
2023/05/07 09:44:15;;;;;;;0.10;0.10;;;12.50;99.90;;;;;;5045199;28;20560;-79
2023/05/07 09:46:42;;;;;;;0.10;0.10;;;12.60;99.90;;;;;;5044500;28;20460;-80
2023/05/07 09:49:15;;;;;;;0.10;0.10;;;12.60;99.90;;;;;;5049835;28;20809;-81
2023/05/07 09:51:49;;;;;;;0.10;0.10;;;12.70;99.90;;;;;;5060832;28;20501;-79
2023/05/07 09:54:16;;;;;;;0.10;0.10;;;12.90;99.90;;;;;;5040130;28;20556;-79
2023/05/07 09:56:44;;;;;;;0.10;0.10;;;12.90;99.90;;;;;;5029498;28;20581;-78
2023/05/07 09:59:13;;;;;;;0.10;0.10;;;12.80;99.90;;;;;;5044869;28;20440;-79
2023/05/07 10:01:41;;;;;;;0.10;0.10;;;13.50;99.90;;;;;;5046999;28;20492;-79
2023/05/07 10:04:10;;;;;;;0.10;0.10;;;13.80;99.90;;;;;;5050236;28;20441;-79
2023/05/07 10:06:40;;;;;;;0.10;0.10;;;13.80;99.90;;;;;;5044456;28;20872;-79
2023/05/07 10:09:06;;;;;;;0.10;0.10;;;14.30;99.90;;;;;;5038896;28;20448;-82
2023/05/07 10:11:36;;;;;;;0.10;0.10;;;14.20;99.90;;;;;;5043451;28;20441;-79
2023/05/07 10:14:07;;;;;;;0.10;0.10;;;14.50;99.90;;;;;;5040838;28;20473;-79
2023/05/07 10:16:36;;;;;;;0.10;0.10;;;14.90;99.90;;;;;;5028024;28;20438;-79
2023/05/07 10:19:06;;;;;;;0.10;0.10;;;14.80;99.90;;;;;;5039966;28;20477;-79
2023/05/07 10:21:38;;;;;;;0.10;0.10;;;15.20;99.90;;;;;;5031574;28;20481;-81
2023/05/07 10:24:19;;;;;;;0.10;0.10;;;16.30;99.90;;;;;;5032492;28;20971;-82
2023/05/07 10:26:49;;;;;;;0.10;0.10;;;15.30;99.90;;;;;;5042700;28;20477;-81
2023/05/07 10:29:25;;;;;;;0.10;0.10;;;15.50;99.90;;;;;;5039328;28;20498;-82
2023/05/07 10:32:07;;;;;;;0.10;0.10;;;15.80;99.90;;;;;;5032410;28;20503;-81
2023/05/07 10:34:40;;;;;;;0.10;0.10;;;16.20;99.90;;;;;;5047688;28;20484;-82
2023/05/07 10:37:06;;;;;;;0.10;0.10;;;16.20;99.90;;;;;;5034361;28;20926;-82
2023/05/07 10:39:32;;;;;;;0.10;0.10;;;16.60;99.90;;;;;;5034432;28;20963;-82
2023/05/07 10:42:08;;;;;;;0.10;0.10;;;16.10;99.90;;;;;;5031914;28;20450;-82
2023/05/07 10:44:33;;;;;;;0.10;0.10;;;16.10;99.90;;;;;;5037111;28;20203;-82
2023/05/07 10:47:09;;;;;;;0.10;0.10;;;15.70;99.90;;;;;;5044777;28;20452;-81
2023/05/07 10:49:35;;;;;;;0.10;0.10;;;15.80;99.90;;;;;;5033861;28;20659;-82
2023/05/07 10:52:15;;;;;;;0.10;0.10;;;16.40;99.90;;;;;;5035605;28;20484;-81
2023/05/07 10:54:43;;;;;;;0.10;0.10;;;16.30;99.90;;;;;;5034674;28;20468;-82
2023/05/07 10:57:37;;;;;;;0.10;0.10;;;15.80;99.90;;;;;;5036641;28;20445;-82
2023/05/07 11:00:23;;;;;;;0.10;0.10;;;17.00;99.90;;;;;;5037332;28;20441;-82
2023/05/07 11:03:00;;;;;;;0.10;0.10;;;17.40;99.90;;;;;;5030585;28;20441;-81
2023/05/07 11:05:31;;;;;;;0.10;0.10;;;16.50;99.90;;;;;;5039739;28;20460;-81
2023/05/07 11:07:58;;;;;;;0.10;0.10;;;16.60;99.90;;;;;;5043350;28;20504;-81
2023/05/07 11:10:53;;;;;;;0.10;0.00;;;16.90;99.90;;;;;;5040509;28;20464;-81
2023/05/07 11:13:39;;;;;;;0.10;0.10;;;17.00;99.90;;;;;;5039877;28;20438;-80
2023/05/07 11:16:04;;;;;;;0.10;0.10;;;17.20;99.90;;;;;;5036317;28;22479;-80
2023/05/07 11:18:50;;;;;;;0.10;0.10;;;16.50;99.90;;;;;;5041576;28;20433;-80
2023/05/07 11:21:36;;;;;;;0.10;0.10;;;16.00;99.90;;;;;;5049183;28;20194;-80
2023/05/07 11:24:05;;;;;;;0.10;0.10;;;15.70;99.90;;;;;;5046821;28;20438;-81
2023/05/07 11:26:45;;;;;;;0.10;0.10;;;16.30;99.90;;;;;;5031537;28;20449;-81
2023/05/07 11:29:18;;;;;;;0.00;0.00;;;17.10;99.90;;;;;;5043663;28;20966;-81
2023/05/07 11:31:48;;;;;;;0.00;0.00;;;17.90;99.90;;;;;;5042720;28;20461;-81
2023/05/07 11:34:20;;;;;;;0.00;0.00;;;17.30;99.90;;;;;;5037100;28;20465;-81
2023/05/07 11:36:47;;;;;;;0.00;0.00;;;16.60;99.90;;;;;;5042288;28;20454;-81
2023/05/07 11:39:25;;;;;;;0.00;0.00;;;16.50;99.90;;;;;;5042774;28;20433;-81
2023/05/07 11:41:51;;;;;;;0.00;0.00;;;17.00;99.90;;;;;;5041118;28;20452;-82
2023/05/07 11:44:17;;;;;;;0.00;0.00;;;17.20;99.90;;;;;;5039673;28;20450;-81
2023/05/07 11:46:45;;;;;;;0.00;0.00;;;17.40;99.90;;;;;;5037032;28;20273;-83
2023/05/07 11:49:11;;;;;;;0.00;0.00;;;17.10;99.90;;;;;;5036688;28;20683;-82
2023/05/07 11:51:36;;;;;;;0.00;0.00;;;16.70;99.90;;;;;;5024501;28;20489;-81
2023/05/07 11:54:08;;;;;;;0.00;0.00;;;16.40;99.90;;;;;;5036293;28;20190;-82
2023/05/07 11:56:35;;;;;;;0.00;0.00;;;16.60;99.90;;;;;;5033711;28;20199;-82
2023/05/07 11:59:00;;;;;;;0.00;0.00;;;16.00;99.90;;;;;;5031993;28;20810;-82
2023/05/07 12:01:26;;;;;;;0.00;0.00;;;16.30;99.90;;;;;;5033854;28;20437;-81
2023/05/07 12:03:52;;;;;;;0.00;0.00;;;16.80;99.90;;;;;;5042154;28;20187;-82
2023/05/07 12:06:18;;;;;;;0.00;0.00;;;16.80;99.90;;;;;;5035867;28;20195;-81
2023/05/07 12:08:45;;;;;;;0.00;0.00;;;16.90;99.90;;;;;;5029277;28;20701;-82
2023/05/07 12:11:22;;;;;;;0.00;0.00;;;17.00;99.90;;;;;;5039634;28;20559;-82
2023/05/07 12:13:47;;;;;;;0.00;0.00;;;17.00;99.90;;;;;;5039914;28;21059;-82
2023/05/07 12:16:13;;;;;;;0.00;0.00;;;17.50;99.90;;;;;;5027898;28;20553;-82
2023/05/07 12:18:39;;;;;;;0.00;0.00;;;17.50;99.90;;;;;;5033575;28;20655;-82
2023/05/07 12:21:06;;;;;;;0.00;0.00;;;18.10;99.90;;;;;;5029556;28;20448;-82
2023/05/07 12:23:33;;;;;;;0.00;0.00;;;18.90;99.90;;;;;;5027694;28;20438;-82
2023/05/07 12:25:59;;;;;;;0.00;0.00;;;19.20;99.90;;;;;;5030982;28;21029;-81
2023/05/07 12:28:25;;;;;;;0.00;0.00;;;18.40;99.90;;;;;;5045296;28;20484;-80
2023/05/07 12:30:52;;;;;;;0.00;0.00;;;18.10;99.90;;;;;;5040506;28;20485;-81
2023/05/07 12:33:23;;;;;;;0.00;0.00;;;17.70;99.90;;;;;;5033748;28;20190;-80
2023/05/07 12:35:48;;;;;;;0.00;0.00;;;17.80;99.90;;;;;;5025242;28;20496;-79
2023/05/07 12:38:17;;;;;;;0.00;0.00;;;17.80;99.90;;;;;;5029648;28;20937;-80
2023/05/07 12:40:45;;;;;;;0.00;0.00;;;17.20;99.90;;;;;;5032311;28;20252;-80
2023/05/07 12:43:43;;;;;;;0.00;0.00;;;17.50;99.90;;;;;;5043173;28;20526;-80
2023/05/07 12:46:09;;;;;;;0.00;0.00;;;18.00;99.90;;;;;;5018985;28;20869;-80
2023/05/07 12:48:37;;;;;;;0.00;0.00;;;17.90;99.90;;;;;;5037779;28;20444;-80
2023/05/07 12:51:03;;;;;;;0.00;0.00;;;18.90;99.90;;;;;;5034364;28;20221;-80
2023/05/07 12:53:29;;;;;;;0.00;0.00;;;18.90;99.90;;;;;;5046398;28;20489;-81